Time;durP1;ratioP1;P1;durP2;ratioP2;P2;SDS_P1;SDS_P2;PMS_P1;PMS_P2;Temp;Humidity;BMP_temperature;BMP_pressure;BME280_temperature;BME280_humidity;BME280_pressure;Samples;Min_cycle;Max_cycle;Signal;HPM_P1;HPM_P2
2023/06/16 00:02:01;;;;;;;8.13;7.27;;;23.10;52.80;;;;;;6259360;22;20545;-66
2023/06/16 00:04:27;;;;;;;7.47;6.77;;;23.00;53.00;;;;;;6262451;22;20150;-66
2023/06/16 00:06:53;;;;;;;7.80;7.10;;;23.00;53.00;;;;;;6260886;22;20228;-66
2023/06/16 00:09:23;;;;;;;8.90;7.20;;;23.00;53.10;;;;;;6261624;22;20397;-66
2023/06/16 00:11:48;;;;;;;7.97;7.27;;;22.90;53.00;;;;;;6260235;22;20405;-66
2023/06/16 00:14:14;;;;;;;7.60;6.90;;;22.90;53.20;;;;;;6235080;22;20416;-66
2023/06/16 00:16:40;;;;;;;7.67;6.63;;;22.90;53.30;;;;;;6263421;22;20186;-66
2023/06/16 00:19:06;;;;;;;8.40;7.60;;;22.90;53.20;;;;;;6261898;22;20181;-66
2023/06/16 00:21:38;;;;;;;8.30;6.77;;;22.80;53.20;;;;;;6261493;22;20151;-66
2023/06/16 00:24:05;;;;;;;6.77;6.17;;;22.90;53.30;;;;;;6261394;22;20391;-66
2023/06/16 00:26:31;;;;;;;7.70;7.00;;;22.90;53.20;;;;;;6236301;22;20804;-66
2023/06/16 00:28:57;;;;;;;8.20;6.93;;;22.90;53.30;;;;;;6262574;22;20432;-66
2023/06/16 00:31:25;;;;;;;7.90;7.20;;;22.90;53.30;;;;;;6236050;22;20182;-66
2023/06/16 00:33:51;;;;;;;7.50;6.80;;;22.90;53.70;;;;;;6264666;22;20540;-66
2023/06/16 00:36:17;;;;;;;8.23;7.43;;;22.90;53.60;;;;;;6265558;22;20405;-66
2023/06/16 00:38:42;;;;;;;10.30;7.77;;;22.90;53.60;;;;;;6263977;22;20717;-66
2023/06/16 00:41:08;;;;;;;8.40;7.70;;;22.80;53.60;;;;;;6264690;22;20154;-66
2023/06/16 00:43:33;;;;;;;8.07;7.30;;;22.80;53.80;;;;;;6265693;22;20158;-66
2023/06/16 00:45:59;;;;;;;7.77;7.07;;;22.80;53.80;;;;;;6266836;22;20163;-66
2023/06/16 00:48:25;;;;;;;7.97;7.37;;;22.80;53.90;;;;;;6264987;22;20541;-66
2023/06/16 00:50:51;;;;;;;8.13;7.33;;;22.70;54.10;;;;;;6266057;22;20700;-66
2023/06/16 00:53:17;;;;;;;8.13;7.43;;;22.70;54.30;;;;;;6267040;22;20151;-65
2023/06/16 00:55:43;;;;;;;7.73;7.03;;;22.70;54.30;;;;;;6267479;22;20200;-66
2023/06/16 00:58:08;;;;;;;8.20;7.50;;;22.60;54.20;;;;;;6266633;22;20396;-66
2023/06/16 01:00:36;;;;;;;7.37;6.70;;;22.60;54.40;;;;;;6266464;22;20389;-66
2023/06/16 01:03:04;;;;;;;15.13;7.53;;;22.60;54.60;;;;;;6267923;22;20147;-65
2023/06/16 01:05:30;;;;;;;9.23;7.50;;;22.50;54.50;;;;;;6266590;22;20381;-66
2023/06/16 01:08:01;;;;;;;9.23;8.30;;;22.50;54.70;;;;;;6266604;22;20393;-66
2023/06/16 01:10:43;;;;;;;8.03;7.33;;;22.50;55.10;;;;;;6265181;22;20417;-66
2023/06/16 01:13:23;;;;;;;8.53;7.60;;;22.30;55.60;;;;;;6267524;22;20423;-66
2023/06/16 01:15:51;;;;;;;9.73;7.63;;;22.20;55.70;;;;;;6266484;22;20411;-66
2023/06/16 01:18:22;;;;;;;9.43;8.47;;;22.10;56.00;;;;;;6267778;22;20401;-66
2023/06/16 01:21:20;;;;;;;8.90;7.80;;;22.10;56.10;;;;;;6267937;22;20722;-66
2023/06/16 01:23:52;;;;;;;9.27;8.27;;;22.00;56.50;;;;;;6265168;22;20362;-69
2023/06/16 01:26:22;;;;;;;7.80;7.00;;;21.80;56.80;;;;;;6267419;22;20373;-66
2023/06/16 01:28:49;;;;;;;8.63;7.83;;;21.70;57.00;;;;;;6266297;22;20424;-65
2023/06/16 01:31:17;;;;;;;7.37;6.63;;;21.50;57.30;;;;;;6240581;22;20502;-66
2023/06/16 01:33:45;;;;;;;8.20;7.40;;;21.60;57.30;;;;;;6266232;22;20377;-66
2023/06/16 01:36:12;;;;;;;9.20;8.40;;;21.50;57.30;;;;;;6266802;22;20373;-66
2023/06/16 01:38:39;;;;;;;8.87;7.43;;;21.40;57.40;;;;;;6265824;22;20404;-66
2023/06/16 01:41:06;;;;;;;7.57;6.87;;;21.50;57.40;;;;;;6266555;22;20458;-65
2023/06/16 01:43:33;;;;;;;7.37;6.77;;;21.40;57.30;;;;;;6267841;22;20384;-66
2023/06/16 01:45:59;;;;;;;7.40;6.70;;;21.40;57.10;;;;;;6267284;22;20452;-66
2023/06/16 01:48:25;;;;;;;7.77;7.07;;;21.30;57.10;;;;;;6267111;22;20403;-66
2023/06/16 01:50:51;;;;;;;6.97;6.30;;;21.40;57.10;;;;;;6266624;22;20417;-66
2023/06/16 01:53:16;;;;;;;8.17;7.43;;;21.40;57.10;;;;;;6267166;22;20458;-66
2023/06/16 01:55:50;;;;;;;7.67;6.97;;;21.30;57.20;;;;;;6265530;22;20430;-66
2023/06/16 01:58:17;;;;;;;8.20;7.27;;;21.20;57.40;;;;;;6266691;22;20501;-66
2023/06/16 02:00:49;;;;;;;7.87;7.17;;;21.20;57.60;;;;;;6240404;22;20949;-66
2023/06/16 02:03:24;;;;;;;8.00;7.20;;;21.10;57.50;;;;;;6267330;22;20365;-65
2023/06/16 02:05:52;;;;;;;8.50;7.60;;;21.20;57.40;;;;;;6266212;22;20957;-65
2023/06/16 02:08:23;;;;;;;8.10;7.37;;;21.30;57.30;;;;;;6265492;22;20401;-66
2023/06/16 02:10:48;;;;;;;8.03;7.30;;;21.30;57.90;;;;;;6266988;22;20420;-65
2023/06/16 02:13:14;;;;;;;8.53;7.63;;;21.20;57.30;;;;;;6265690;22;20428;-65
2023/06/16 02:15:40;;;;;;;8.63;7.83;;;21.20;57.50;;;;;;6266900;22;20143;-65
2023/06/16 02:18:09;;;;;;;9.43;7.70;;;21.20;57.40;;;;;;6265892;22;20163;-66
2023/06/16 02:20:35;;;;;;;7.63;6.93;;;21.20;57.50;;;;;;6265427;22;20230;-66
2023/06/16 02:23:01;;;;;;;8.13;7.43;;;21.20;57.40;;;;;;6266021;22;20377;-66
2023/06/16 02:25:27;;;;;;;8.17;7.37;;;21.30;57.50;;;;;;6266916;22;20442;-66
2023/06/16 02:27:52;;;;;;;7.70;6.93;;;21.30;57.50;;;;;;6265923;22;20823;-66
2023/06/16 02:30:18;;;;;;;9.10;8.30;;;21.20;57.40;;;;;;6265815;22;20193;-66
2023/06/16 02:32:44;;;;;;;9.07;7.27;;;21.20;57.40;;;;;;6265526;22;20150;-66
2023/06/16 02:35:09;;;;;;;7.50;6.90;;;21.20;57.30;;;;;;6266571;22;20151;-65
2023/06/16 02:37:36;;;;;;;7.90;7.20;;;21.20;57.40;;;;;;6265296;22;20143;-66
2023/06/16 02:40:04;;;;;;;7.80;7.10;;;21.20;57.40;;;;;;6237926;22;20158;-66
2023/06/16 02:42:30;;;;;;;7.50;6.90;;;21.20;57.50;;;;;;6267733;22;20879;-66
2023/06/16 02:44:56;;;;;;;13.23;9.00;;;21.20;57.50;;;;;;6265748;22;20399;-66
2023/06/16 02:47:21;;;;;;;8.10;6.60;;;21.20;58.10;;;;;;6265818;22;20381;-65
2023/06/16 02:49:48;;;;;;;7.87;7.17;;;21.20;57.70;;;;;;6264703;22;20308;-65
2023/06/16 02:52:14;;;;;;;7.60;6.87;;;21.20;57.90;;;;;;6265204;22;20173;-66
2023/06/16 02:54:40;;;;;;;7.10;6.33;;;21.20;57.90;;;;;;6265964;22;20362;-65
2023/06/16 02:57:07;;;;;;;9.27;7.60;;;21.10;58.20;;;;;;6266077;22;20146;-66
2023/06/16 02:59:33;;;;;;;7.50;6.90;;;21.10;58.30;;;;;;6265024;22;20764;-65
2023/06/16 03:01:59;;;;;;;10.20;7.77;;;21.00;58.80;;;;;;6262928;22;20583;-66
2023/06/16 03:04:25;;;;;;;9.83;7.83;;;21.00;58.80;;;;;;6265903;22;20928;-66
2023/06/16 03:06:57;;;;;;;9.07;8.20;;;20.90;59.20;;;;;;6265602;22;20470;-66
2023/06/16 03:09:26;;;;;;;8.13;7.40;;;20.80;59.50;;;;;;6265194;22;20510;-66
2023/06/16 03:11:52;;;;;;;7.67;6.87;;;20.80;59.30;;;;;;6264761;22;20377;-66
2023/06/16 03:14:18;;;;;;;8.80;8.07;;;20.80;59.60;;;;;;6264984;22;20395;-65
2023/06/16 03:16:44;;;;;;;11.70;8.23;;;20.70;59.50;;;;;;6266237;22;20365;-66
2023/06/16 03:19:11;;;;;;;8.80;7.87;;;20.70;59.60;;;;;;6263880;22;20166;-66
2023/06/16 03:21:37;;;;;;;8.80;7.43;;;20.70;59.70;;;;;;6265203;22;20451;-66
2023/06/16 03:24:02;;;;;;;11.63;7.57;;;20.70;59.60;;;;;;6264785;22;20397;-66
2023/06/16 03:26:28;;;;;;;14.90;7.63;;;20.70;59.60;;;;;;6264659;22;20158;-66
2023/06/16 03:28:54;;;;;;;12.03;7.70;;;20.70;59.60;;;;;;6263987;22;20643;-66
2023/06/16 03:31:19;;;;;;;8.67;7.87;;;20.70;59.60;;;;;;6264981;22;20178;-66
2023/06/16 03:33:45;;;;;;;10.40;8.10;;;20.70;59.60;;;;;;6265315;22;20226;-66
2023/06/16 03:36:10;;;;;;;8.77;8.03;;;20.70;59.80;;;;;;6265180;22;20147;-66
2023/06/16 03:38:36;;;;;;;9.20;7.47;;;20.70;59.80;;;;;;6264912;22;20483;-66
2023/06/16 03:41:01;;;;;;;7.77;6.97;;;20.70;59.80;;;;;;6263220;22;20156;-66
2023/06/16 03:43:27;;;;;;;8.43;7.67;;;20.70;59.80;;;;;;6265960;22;20150;-66
2023/06/16 03:45:52;;;;;;;9.03;8.13;;;20.70;59.70;;;;;;6265183;22;20230;-66
2023/06/16 03:48:18;;;;;;;9.03;8.23;;;20.60;59.80;;;;;;6264823;22;20655;-65
2023/06/16 03:50:44;;;;;;;9.40;8.50;;;20.60;59.90;;;;;;6264189;22;20189;-65
2023/06/16 03:53:09;;;;;;;8.13;7.43;;;20.50;60.10;;;;;;6264861;22;20146;-65
2023/06/16 03:55:35;;;;;;;8.60;7.70;;;20.50;60.70;;;;;;6237910;22;20169;-65
2023/06/16 03:58:00;;;;;;;8.93;8.03;;;20.40;60.70;;;;;;6264833;22;20249;-66
2023/06/16 04:00:27;;;;;;;8.47;7.77;;;20.50;60.70;;;;;;6262889;22;20878;-66
2023/06/16 04:02:52;;;;;;;8.43;7.57;;;20.40;60.70;;;;;;6265034;22;20772;-67
2023/06/16 04:05:18;;;;;;;17.10;9.43;;;20.40;60.50;;;;;;6265725;22;20484;-66
2023/06/16 04:07:43;;;;;;;8.37;7.57;;;20.40;60.60;;;;;;6264033;22;20230;-66
2023/06/16 04:10:09;;;;;;;8.43;7.60;;;20.20;60.40;;;;;;6261443;22;20182;-67
2023/06/16 04:12:35;;;;;;;9.03;7.70;;;20.10;61.20;;;;;;6264448;22;20157;-65
2023/06/16 04:15:02;;;;;;;7.83;7.13;;;20.10;61.00;;;;;;6264629;22;20411;-66
2023/06/16 04:17:28;;;;;;;8.17;7.43;;;20.20;60.80;;;;;;6265370;22;20505;-69
2023/06/16 04:19:53;;;;;;;7.90;7.10;;;20.20;60.40;;;;;;6265707;22;20365;-66
2023/06/16 04:22:19;;;;;;;8.47;7.23;;;20.20;60.20;;;;;;6265776;22;20154;-66
2023/06/16 04:24:45;;;;;;;8.47;7.67;;;20.20;60.10;;;;;;6267071;22;20150;-66
2023/06/16 04:27:10;;;;;;;10.87;7.63;;;20.10;60.00;;;;;;6267856;22;20203;-66
2023/06/16 04:29:41;;;;;;;8.50;7.37;;;20.10;60.30;;;;;;6267469;22;20243;-67
2023/06/16 04:32:11;;;;;;;7.70;6.93;;;20.20;60.10;;;;;;6267566;22;20131;-66
2023/06/16 04:34:38;;;;;;;8.30;7.27;;;20.10;60.10;;;;;;6266991;22;20374;-66
2023/06/16 04:37:04;;;;;;;9.63;7.30;;;20.10;60.00;;;;;;6266845;22;20388;-67
2023/06/16 04:39:30;;;;;;;8.40;7.60;;;20.10;60.00;;;;;;6265877;22;20397;-67
2023/06/16 04:41:56;;;;;;;8.27;7.40;;;20.10;60.20;;;;;;6266785;22;20543;-66
2023/06/16 04:44:22;;;;;;;8.30;7.43;;;20.10;60.70;;;;;;6267705;22;20155;-66
2023/06/16 04:46:47;;;;;;;9.40;7.77;;;20.00;61.00;;;;;;6265470;22;20429;-65
2023/06/16 04:49:13;;;;;;;7.80;7.10;;;20.10;61.40;;;;;;6264768;22;20198;-66
2023/06/16 04:51:39;;;;;;;8.67;7.50;;;20.10;61.30;;;;;;6267648;22;20196;-68
2023/06/16 04:54:04;;;;;;;10.03;7.13;;;20.20;60.80;;;;;;6265272;22;20369;-66
2023/06/16 04:56:30;;;;;;;7.50;6.80;;;20.20;60.80;;;;;;6266409;22;20480;-67
2023/06/16 04:58:55;;;;;;;8.70;7.87;;;20.30;60.60;;;;;;6266017;22;20169;-67
2023/06/16 05:01:26;;;;;;;10.17;8.63;;;20.30;60.80;;;;;;6266812;22;20228;-67
2023/06/16 05:03:51;;;;;;;8.40;7.70;;;20.30;60.80;;;;;;6264992;22;20146;-67
2023/06/16 05:06:17;;;;;;;8.33;7.53;;;20.30;60.90;;;;;;6239120;22;20876;-66
2023/06/16 05:08:43;;;;;;;10.20;8.23;;;20.30;61.20;;;;;;6266251;22;20177;-66
2023/06/16 05:11:08;;;;;;;8.63;7.77;;;20.40;61.20;;;;;;6264314;22;20186;-66
2023/06/16 05:13:34;;;;;;;13.60;8.70;;;20.40;61.70;;;;;;6266187;22;20155;-66
2023/06/16 05:16:00;;;;;;;11.07;8.30;;;20.30;61.70;;;;;;6267032;22;20522;-66
2023/06/16 05:18:25;;;;;;;8.60;7.80;;;20.30;61.70;;;;;;6266101;22;20284;-65
2023/06/16 05:20:51;;;;;;;8.37;7.57;;;20.20;61.80;;;;;;6265646;22;20147;-66
2023/06/16 05:23:16;;;;;;;9.40;8.20;;;20.20;61.40;;;;;;6265472;22;20150;-66
2023/06/16 05:25:42;;;;;;;12.97;8.67;;;20.20;61.60;;;;;;6240390;22;20151;-66
2023/06/16 05:28:07;;;;;;;10.90;8.60;;;20.20;61.30;;;;;;6264776;22;20206;-66
2023/06/16 05:30:33;;;;;;;9.00;7.83;;;20.20;61.80;;;;;;6262278;22;20170;-66
2023/06/16 05:32:58;;;;;;;9.40;8.40;;;20.20;61.90;;;;;;6266411;22;20450;-66
2023/06/16 05:35:24;;;;;;;9.60;8.60;;;20.30;61.40;;;;;;6266610;22;20193;-67
2023/06/16 05:37:50;;;;;;;8.50;7.60;;;20.30;61.70;;;;;;6265969;22;20182;-66
2023/06/16 05:40:15;;;;;;;14.73;7.50;;;20.40;60.90;;;;;;6265604;22;20158;-66
2023/06/16 05:42:41;;;;;;;8.60;7.80;;;20.40;61.10;;;;;;6267236;22;20475;-67
2023/06/16 05:45:07;;;;;;;10.00;9.00;;;20.50;60.80;;;;;;6265005;22;20154;-66
2023/06/16 05:47:32;;;;;;;10.03;9.00;;;20.40;60.30;;;;;;6264528;22;20147;-66
2023/06/16 05:49:59;;;;;;;10.83;9.40;;;20.50;60.30;;;;;;6263304;22;21292;-66
2023/06/16 05:52:25;;;;;;;10.93;8.83;;;20.50;60.20;;;;;;6265907;22;20142;-66
2023/06/16 05:54:50;;;;;;;9.37;8.43;;;20.70;59.20;;;;;;6265577;22;20393;-67
2023/06/16 05:57:16;;;;;;;10.73;9.60;;;20.70;59.40;;;;;;6265868;22;20245;-66
2023/06/16 05:59:42;;;;;;;10.50;9.27;;;20.50;59.60;;;;;;6265158;22;20192;-66
2023/06/16 06:02:07;;;;;;;10.60;8.97;;;20.50;59.50;;;;;;6264056;22;20188;-67
2023/06/16 06:04:33;;;;;;;9.10;8.30;;;20.50;58.90;;;;;;6266712;22;20438;-66
2023/06/16 06:07:00;;;;;;;10.27;9.17;;;20.60;59.10;;;;;;6266352;22;20150;-66
2023/06/16 06:09:26;;;;;;;10.00;9.10;;;20.60;58.90;;;;;;6265648;22;20170;-67
2023/06/16 06:11:52;;;;;;;12.40;8.90;;;20.70;58.90;;;;;;6265777;22;20427;-66
2023/06/16 06:14:18;;;;;;;18.40;8.33;;;20.70;59.00;;;;;;6265831;22;20225;-66
2023/06/16 06:16:43;;;;;;;12.77;8.40;;;20.80;58.80;;;;;;6266863;22;20667;-66
2023/06/16 06:19:09;;;;;;;10.93;7.17;;;20.90;58.70;;;;;;6262423;22;20389;-66
2023/06/16 06:21:35;;;;;;;10.17;8.90;;;21.10;58.30;;;;;;6240013;22;20510;-65
2023/06/16 06:24:01;;;;;;;10.27;9.10;;;21.10;57.50;;;;;;6238623;22;20155;-66
2023/06/16 06:26:27;;;;;;;11.33;8.50;;;21.20;57.10;;;;;;6267151;22;20382;-66
2023/06/16 06:28:52;;;;;;;12.70;8.70;;;21.30;57.00;;;;;;6265228;22;20393;-66
2023/06/16 06:31:18;;;;;;;20.60;17.50;;;21.30;56.50;;;;;;6267013;22;20236;-66
2023/06/16 06:33:45;;;;;;;9.90;8.50;;;21.40;56.50;;;;;;6266052;22;20433;-65
2023/06/16 06:36:11;;;;;;;11.17;8.97;;;21.40;56.60;;;;;;6265727;22;20154;-66
2023/06/16 06:38:37;;;;;;;12.63;9.03;;;21.40;57.00;;;;;;6266461;22;20389;-66
2023/06/16 06:41:02;;;;;;;18.03;8.70;;;21.50;56.40;;;;;;6265140;22;20852;-67
2023/06/16 06:43:28;;;;;;;12.40;8.37;;;21.60;56.10;;;;;;6233205;22;20389;-66
2023/06/16 06:45:53;;;;;;;9.47;8.00;;;21.60;55.90;;;;;;6260646;22;20173;-66
2023/06/16 06:48:19;;;;;;;10.83;8.63;;;21.70;55.90;;;;;;6264461;22;20182;-66
2023/06/16 06:50:47;;;;;;;10.10;8.97;;;21.70;55.70;;;;;;6262126;22;20174;-66
2023/06/16 06:53:13;;;;;;;11.13;8.40;;;21.70;55.30;;;;;;6265258;22;20277;-66
2023/06/16 06:55:38;;;;;;;12.40;9.37;;;21.70;55.10;;;;;;6266563;22;20413;-66
2023/06/16 06:58:04;;;;;;;11.90;9.00;;;21.70;54.80;;;;;;6264940;22;20170;-66
2023/06/16 07:00:30;;;;;;;8.87;8.03;;;21.90;54.90;;;;;;6263606;22;20197;-67
2023/06/16 07:02:55;;;;;;;11.73;8.50;;;21.90;55.00;;;;;;6265200;22;20134;-67
2023/06/16 07:05:21;;;;;;;10.07;8.23;;;21.90;54.60;;;;;;6263432;22;20150;-67
2023/06/16 07:07:46;;;;;;;13.00;9.00;;;22.00;54.40;;;;;;6264529;22;20179;-68
2023/06/16 07:10:12;;;;;;;10.97;8.30;;;21.90;53.80;;;;;;6263309;22;20254;-67
2023/06/16 07:12:37;;;;;;;7.83;7.10;;;22.00;53.80;;;;;;6265068;22;20147;-68
2023/06/16 07:15:03;;;;;;;13.77;8.20;;;22.10;53.70;;;;;;6236864;22;20154;-68
2023/06/16 07:17:31;;;;;;;9.30;8.03;;;22.20;53.60;;;;;;6261557;22;20655;-68
2023/06/16 07:19:56;;;;;;;11.37;10.17;;;22.20;53.80;;;;;;6264174;22;20167;-69
2023/06/16 07:22:22;;;;;;;9.93;7.17;;;22.30;53.90;;;;;;6265097;22;20384;-69
2023/06/16 07:24:48;;;;;;;8.70;7.80;;;22.40;54.00;;;;;;6265936;22;20151;-68
2023/06/16 07:27:13;;;;;;;14.33;9.30;;;22.40;53.90;;;;;;6236118;22;20162;-67
2023/06/16 07:29:39;;;;;;;9.07;8.13;;;22.40;53.80;;;;;;6264414;22;20181;-68
2023/06/16 07:32:06;;;;;;;8.70;7.57;;;22.50;53.50;;;;;;6264893;22;20572;-69
2023/06/16 07:34:31;;;;;;;9.67;7.77;;;22.50;53.30;;;;;;6264173;22;20373;-68
2023/06/16 07:36:57;;;;;;;12.67;7.53;;;22.50;53.00;;;;;;6265367;22;20442;-68
2023/06/16 07:39:24;;;;;;;13.23;7.50;;;22.60;53.00;;;;;;6264138;22;20509;-67
2023/06/16 07:41:49;;;;;;;8.07;7.10;;;22.60;51.80;;;;;;6263881;22;20212;-68
2023/06/16 07:44:15;;;;;;;9.90;7.50;;;22.60;51.80;;;;;;6264070;22;20415;-68
2023/06/16 07:46:45;;;;;;;8.80;7.60;;;22.70;51.70;;;;;;6265314;22;20155;-68
2023/06/16 07:49:13;;;;;;;10.57;8.00;;;22.70;51.60;;;;;;6264672;22;20178;-68
2023/06/16 07:51:40;;;;;;;8.27;7.23;;;22.70;51.40;;;;;;6236278;22;20520;-68
2023/06/16 07:54:07;;;;;;;11.90;7.23;;;22.80;51.50;;;;;;6263672;22;20456;-68
2023/06/16 07:56:33;;;;;;;11.40;7.33;;;22.90;51.30;;;;;;6264419;22;20397;-68
2023/06/16 07:58:58;;;;;;;9.93;6.33;;;22.90;50.90;;;;;;6264554;22;20769;-68
2023/06/16 08:01:24;;;;;;;8.43;7.43;;;23.00;51.00;;;;;;6235671;22;20182;-68
2023/06/16 08:03:50;;;;;;;9.90;7.30;;;23.10;51.00;;;;;;6235715;22;20158;-68
2023/06/16 08:06:16;;;;;;;14.33;7.13;;;23.10;51.10;;;;;;6236521;22;20169;-68
2023/06/16 08:08:43;;;;;;;8.27;7.30;;;23.10;51.20;;;;;;6263280;22;20181;-68
2023/06/16 08:11:08;;;;;;;10.03;7.03;;;23.20;50.90;;;;;;6264418;22;20523;-68
2023/06/16 08:13:34;;;;;;;7.67;6.73;;;23.40;50.30;;;;;;6264266;22;20390;-68
2023/06/16 08:16:00;;;;;;;9.33;7.27;;;23.40;50.10;;;;;;6265191;22;20555;-68
2023/06/16 08:18:26;;;;;;;8.40;6.23;;;23.50;50.00;;;;;;6262951;22;20610;-68
2023/06/16 08:20:52;;;;;;;12.40;6.37;;;23.50;50.20;;;;;;6264763;22;20384;-68
2023/06/16 08:23:17;;;;;;;8.23;6.70;;;23.60;49.80;;;;;;6263414;22;20870;-68
2023/06/16 08:25:43;;;;;;;7.77;6.00;;;23.60;49.80;;;;;;6265255;22;20464;-67
2023/06/16 08:28:09;;;;;;;8.67;6.63;;;23.70;49.30;;;;;;6261333;22;20491;-67
2023/06/16 08:30:35;;;;;;;6.73;6.00;;;23.70;49.10;;;;;;6262894;22;20672;-67
2023/06/16 08:33:01;;;;;;;10.43;6.70;;;23.80;49.30;;;;;;6237942;22;20401;-67
2023/06/16 08:35:30;;;;;;;6.43;5.83;;;23.80;49.00;;;;;;6263441;22;20481;-67
2023/06/16 08:37:56;;;;;;;8.77;6.83;;;23.90;48.90;;;;;;6264305;22;20170;-67
2023/06/16 08:40:22;;;;;;;10.63;6.80;;;23.90;48.90;;;;;;6263905;22;20381;-67
2023/06/16 08:42:47;;;;;;;6.33;5.73;;;24.00;49.00;;;;;;6264678;22;20151;-67
2023/06/16 08:45:13;;;;;;;7.07;6.37;;;24.00;48.30;;;;;;6262494;22;20863;-68
2023/06/16 08:47:40;;;;;;;11.47;6.50;;;24.10;48.20;;;;;;6261421;22;20154;-67
2023/06/16 08:50:07;;;;;;;9.83;6.03;;;24.10;47.90;;;;;;6263063;22;20951;-67
2023/06/16 08:52:37;;;;;;;7.50;6.53;;;24.10;47.80;;;;;;6260086;22;20461;-67
2023/06/16 08:55:06;;;;;;;6.33;5.73;;;24.20;47.40;;;;;;6264669;22;20933;-67
2023/06/16 08:57:33;;;;;;;6.20;5.60;;;24.20;47.70;;;;;;6261727;22;20370;-67
2023/06/16 09:00:00;;;;;;;25.37;6.70;;;24.30;46.90;;;;;;6237358;22;20926;-68
2023/06/16 09:02:29;;;;;;;6.13;5.47;;;24.30;46.90;;;;;;6261691;22;20340;-66
2023/06/16 09:04:56;;;;;;;6.90;5.28;;;24.40;46.40;;;;;;6262607;22;20399;-67
2023/06/16 09:07:27;;;;;;;9.50;5.23;;;24.50;46.90;;;;;;6262988;22;20150;-66
2023/06/16 09:09:53;;;;;;;6.23;5.50;;;24.60;46.90;;;;;;6237200;22;20376;-66
2023/06/16 09:12:19;;;;;;;6.10;5.50;;;24.70;46.60;;;;;;6265384;22;20919;-66
2023/06/16 09:14:49;;;;;;;8.60;6.30;;;24.80;46.30;;;;;;6265111;22;20405;-66
2023/06/16 09:17:18;;;;;;;8.53;6.20;;;24.90;45.80;;;;;;6265287;22;20217;-66
2023/06/16 09:19:47;;;;;;;11.20;6.00;;;24.90;44.60;;;;;;6264259;22;20458;-66
2023/06/16 09:22:18;;;;;;;6.90;5.87;;;25.00;44.10;;;;;;6265264;22;20841;-66
2023/06/16 09:24:45;;;;;;;6.30;5.60;;;24.90;44.00;;;;;;6265460;22;20384;-65
2023/06/16 09:27:12;;;;;;;9.90;5.67;;;24.90;44.30;;;;;;6265481;22;20439;-65
2023/06/16 09:29:38;;;;;;;9.20;5.77;;;24.90;44.20;;;;;;6239227;22;20401;-66
2023/06/16 09:32:10;;;;;;;6.40;5.80;;;24.90;44.00;;;;;;6267969;22;20382;-65
2023/06/16 09:34:36;;;;;;;7.80;5.70;;;24.90;42.30;;;;;;6266967;22;20154;-65
2023/06/16 09:37:05;;;;;;;8.70;5.47;;;24.90;42.80;;;;;;6264040;22;20931;-65
2023/06/16 09:39:30;;;;;;;7.33;5.40;;;25.00;41.80;;;;;;6236942;22;20753;-66
2023/06/16 09:41:57;;;;;;;5.20;4.70;;;25.10;42.40;;;;;;6266250;22;20373;-66
2023/06/16 09:44:26;;;;;;;6.23;4.57;;;25.20;41.60;;;;;;6266060;22;20143;-66
2023/06/16 09:46:53;;;;;;;5.57;4.97;;;25.30;40.60;;;;;;6266930;22;20385;-66
2023/06/16 09:49:24;;;;;;;5.20;4.80;;;25.40;40.20;;;;;;6264501;22;20397;-66
2023/06/16 09:51:57;;;;;;;6.50;4.60;;;25.50;38.60;;;;;;6265196;22;20409;-66
2023/06/16 09:54:24;;;;;;;6.50;5.57;;;25.50;39.40;;;;;;6266460;22;20373;-66
2023/06/16 09:56:50;;;;;;;5.73;5.20;;;25.50;39.10;;;;;;6267645;22;20374;-67
2023/06/16 09:59:17;;;;;;;6.20;5.20;;;25.60;38.80;;;;;;6265564;22;20386;-67
2023/06/16 10:01:46;;;;;;;5.77;5.20;;;25.60;38.50;;;;;;6265932;22;20419;-68
2023/06/16 10:04:14;;;;;;;5.83;4.80;;;25.70;38.40;;;;;;6265558;22;20370;-67
2023/06/16 10:06:52;;;;;;;8.43;5.00;;;25.80;38.20;;;;;;6266488;22;20826;-67
2023/06/16 10:09:23;;;;;;;5.27;4.77;;;25.80;38.40;;;;;;6266121;22;20396;-67
2023/06/16 10:11:49;;;;;;;5.47;4.97;;;25.90;38.30;;;;;;6265455;22;20471;-67
2023/06/16 10:14:19;;;;;;;12.30;5.20;;;25.90;38.00;;;;;;6265714;22;20377;-65
2023/06/16 10:16:49;;;;;;;6.83;4.90;;;26.00;38.10;;;;;;6268071;22;20692;-66
2023/06/16 10:19:16;;;;;;;6.00;5.03;;;26.10;38.10;;;;;;6264144;22;20845;-66
2023/06/16 10:21:42;;;;;;;5.90;5.27;;;26.00;37.30;;;;;;6264626;22;20852;-67
2023/06/16 10:24:11;;;;;;;6.20;5.20;;;26.10;37.60;;;;;;6264119;22;20377;-67
2023/06/16 10:26:37;;;;;;;5.87;5.37;;;26.10;38.00;;;;;;6264894;22;20476;-67
2023/06/16 10:29:03;;;;;;;7.57;6.00;;;26.20;37.90;;;;;;6266451;22;20400;-67
2023/06/16 10:31:28;;;;;;;5.87;5.27;;;26.30;37.90;;;;;;6265139;22;20424;-67
2023/06/16 10:33:55;;;;;;;6.03;5.10;;;26.40;38.10;;;;;;6265668;22;20369;-66
2023/06/16 10:36:28;;;;;;;5.83;4.80;;;26.40;37.90;;;;;;6262126;22;20154;-67
2023/06/16 10:39:09;;;;;;;6.00;5.40;;;26.40;38.10;;;;;;6266604;22;20493;-67
2023/06/16 10:41:51;;;;;;;6.33;5.73;;;26.50;38.20;;;;;;6264741;22;20852;-66
2023/06/16 10:44:24;;;;;;;8.80;6.50;;;26.50;38.10;;;;;;6263575;22;20365;-66
2023/06/16 10:47:11;;;;;;;7.90;5.50;;;26.40;38.10;;;;;;6266787;22;20463;-67
2023/06/16 10:49:58;;;;;;;5.73;5.23;;;26.40;38.50;;;;;;6262604;22;20389;-67
2023/06/16 10:52:33;;;;;;;6.20;5.33;;;26.60;39.00;;;;;;6265133;22;20724;-68
2023/06/16 10:55:20;;;;;;;6.60;5.70;;;26.60;39.20;;;;;;6266100;22;20432;-67
2023/06/16 10:58:19;;;;;;;10.23;5.93;;;26.70;39.60;;;;;;6243479;22;20405;-67
2023/06/16 11:01:20;;;;;;;6.30;5.70;;;26.80;39.30;;;;;;6247132;22;20428;-67
2023/06/16 11:03:46;;;;;;;7.63;6.23;;;26.90;39.40;;;;;;6264946;22;20407;-67
2023/06/16 11:06:12;;;;;;;6.57;5.17;;;26.70;38.80;;;;;;6266154;22;20387;-67
2023/06/16 11:08:57;;;;;;;6.40;5.73;;;26.70;39.90;;;;;;6263459;22;21133;-67
2023/06/16 11:11:32;;;;;;;7.37;5.60;;;26.80;39.20;;;;;;6265672;22;20417;-68
2023/06/16 11:14:00;;;;;;;7.43;5.27;;;26.90;39.00;;;;;;6265968;22;20349;-67
2023/06/16 11:16:26;;;;;;;5.80;5.30;;;27.10;38.60;;;;;;6264365;22;20380;-67
2023/06/16 11:18:51;;;;;;;9.30;5.70;;;27.10;38.80;;;;;;6265355;22;20393;-67
2023/06/16 11:21:17;;;;;;;6.90;6.30;;;27.20;39.20;;;;;;6265102;22;20487;-67
2023/06/16 11:23:44;;;;;;;6.60;5.97;;;27.40;39.20;;;;;;6236739;22;20165;-67
2023/06/16 11:26:11;;;;;;;6.10;5.50;;;27.50;39.30;;;;;;6264788;22;20476;-67
2023/06/16 11:28:40;;;;;;;7.77;6.43;;;27.40;38.60;;;;;;6263180;22;20400;-67
2023/06/16 11:31:10;;;;;;;5.90;5.30;;;27.40;38.30;;;;;;6265848;22;20930;-67
2023/06/16 11:33:37;;;;;;;6.97;6.27;;;27.40;38.40;;;;;;6236961;22;20860;-67
2023/06/16 11:36:12;;;;;;;6.80;6.20;;;27.40;38.30;;;;;;6266035;22;20374;-67
2023/06/16 11:38:42;;;;;;;8.13;5.90;;;27.50;38.20;;;;;;6262781;22;21276;-66
2023/06/16 11:41:19;;;;;;;6.90;6.30;;;27.60;38.50;;;;;;6262390;22;20814;-68
2023/06/16 11:43:46;;;;;;;7.70;6.23;;;27.70;38.60;;;;;;6265224;22;20530;-66
2023/06/16 11:46:12;;;;;;;10.13;6.00;;;27.80;38.40;;;;;;6266346;22;20374;-66
2023/06/16 11:48:38;;;;;;;9.77;6.67;;;27.80;38.40;;;;;;6262952;22;20705;-66
2023/06/16 11:51:04;;;;;;;6.13;5.63;;;27.90;38.50;;;;;;6265008;22;20174;-66
2023/06/16 11:53:31;;;;;;;7.17;6.20;;;27.90;38.40;;;;;;6264942;22;20378;-66
2023/06/16 11:55:59;;;;;;;6.53;5.90;;;28.10;38.30;;;;;;6264559;22;20426;-66
2023/06/16 11:58:26;;;;;;;7.30;6.40;;;28.40;38.00;;;;;;6262738;22;20434;-66
2023/06/16 12:00:56;;;;;;;9.00;6.23;;;28.70;38.10;;;;;;6266307;22;21181;-66
2023/06/16 12:03:24;;;;;;;7.70;6.53;;;28.80;38.10;;;;;;6263627;22;20738;-66
2023/06/16 12:05:53;;;;;;;8.23;6.50;;;29.40;37.40;;;;;;6265613;22;20384;-66
2023/06/16 12:08:44;;;;;;;6.23;5.63;;;29.40;36.30;;;;;;6264731;22;20946;-66
2023/06/16 12:11:13;;;;;;;9.10;5.93;;;29.30;36.50;;;;;;6265610;22;20409;-66
2023/06/16 12:13:40;;;;;;;6.70;6.10;;;30.70;35.90;;;;;;6260589;22;20454;-66
2023/06/16 12:16:08;;;;;;;6.87;6.10;;;31.60;35.10;;;;;;6259471;22;20370;-66
2023/06/16 12:18:34;;;;;;;6.90;5.60;;;32.70;34.20;;;;;;6260997;22;20397;-66
2023/06/16 12:21:20;;;;;;;6.83;5.40;;;33.30;33.50;;;;;;6261531;22;20724;-67
2023/06/16 12:23:59;;;;;;;6.93;5.70;;;33.80;33.00;;;;;;6236425;22;20422;-66
2023/06/16 12:26:24;;;;;;;6.03;5.53;;;33.10;32.70;;;;;;6264059;22;20906;-67
2023/06/16 12:28:53;;;;;;;6.70;6.00;;;32.80;32.70;;;;;;6263140;22;20401;-67
2023/06/16 12:31:20;;;;;;;6.93;6.17;;;32.30;33.10;;;;;;6238377;22;20270;-66
2023/06/16 12:33:50;;;;;;;6.67;6.07;;;32.00;34.20;;;;;;6265131;22;20784;-67
2023/06/16 12:36:16;;;;;;;6.23;5.63;;;31.90;33.90;;;;;;6263170;22;20365;-67
2023/06/16 12:38:42;;;;;;;8.37;6.30;;;32.00;33.50;;;;;;6263164;22;21070;-67
2023/06/16 12:41:15;;;;;;;8.60;6.47;;;31.60;33.30;;;;;;6266302;22;20411;-67
2023/06/16 12:43:51;;;;;;;9.43;6.17;;;31.40;33.10;;;;;;6267250;22;20211;-69
2023/06/16 12:46:18;;;;;;;9.67;7.70;;;31.50;33.90;;;;;;6266462;22;20380;-67
2023/06/16 12:48:44;;;;;;;8.07;6.03;;;31.90;33.90;;;;;;6266012;22;20397;-67